Terminal Aerodrome Forecast
Issued by NWS

Home | Current Version | Previous Version | Text Only | Print | Product List | Glossary On
Versions: 1 2 3 4 5 6 7 8 9 10 11 12 13 14 15 16 17 18 19 20 21 22 23 24 25 26 27 28 29 30 31 32 33 34 35 36 37 38 39 40 41 42 43 44 45 46 47 48 49 50
059
FTUS43 KAPX 080534
TAFTVC
TAF
KTVC 080534Z 0806/0906 19008KT P6SM SCT100 BKN120 WS010/22045KT
     FM081400 21016G24KT P6SM SCT060 BKN120 WS012/22045KT
     FM081600 22014G24KT P6SM SCT014 OVC035
     FM081800 22013G24KT P6SM SCT013 OVC014
     FM082100 23009KT P6SM OVC008
     FM090300 00000KT P6SM OVC012=

USA.gov is the U.S. government's official web portal to all federal, state and local government web resources and services.